Laudanum — FAC9196 — position and weather

sailwx.info

Track history (hours):
 
Tides and Currents Weather Stations Pressure Air Temp Water Temp Dewpoint Dewpoint Depression Visibility Wind Speed Wind Dir Waves Ship Positions

Laudanum

Last reported at 2017-Sep-24 13:44 UTC. Time now 2017-Nov-21 14:04 UTC.
Position N 47°35' W 003°02'.
Warning: this ship's position is 58 days out of date.

Type: Sailing vessel. MMSI: 227360690.

Date/timePositionNaut miles runAvg speedWind from/ knotsBaromVisibWave heightAir tempDewpointWater temp
2017-Sep-24 13:44N 47°35' W 003°02'0 0.0
2017-Sep-24 13:29N 47°35' W 003°02'0 0.0
2017-Sep-24 12:59N 47°35' W 003°02'1 2.3
2017-Sep-24 12:30N 47°34' W 003°01'3 6.1
2017-Sep-24 12:00N 47°31' W 003°01'2 4.8
2017-Sep-24 11:30N 47°29' W 003°02'2 4.7
2017-Sep-24 11:00N 47°27' W 003°03'2 4.5
2017-Sep-24 10:30N 47°25' W 003°05'3 5.6
2017-Sep-24 10:00N 47°23' W 003°08'3 4.8
2017-Sep-24 09:28N 47°21' W 003°09'0 0.0
2017-Sep-24 08:52N 47°21' W 003°09'0 0.0
2017-Sep-24 08:25N 47°21' W 003°09'0 0.0
2017-Sep-24 07:58N 47°21' W 003°09'0 0.0
2017-Sep-24 07:22N 47°21' W 003°09'0 0.0
2017-Sep-24 05:49N 47°21' W 003°09'0 0.0
2017-Sep-24 05:28N 47°21' W 003°09'0 0.0
2017-Sep-24 04:58N 47°21' W 003°09'0 0.0
2017-Sep-24 04:28N 47°21' W 003°09'0 0.0
2017-Sep-24 03:58N 47°21' W 003°09'0 0.0
2017-Sep-24 03:28N 47°21' W 003°09'0 0.0
2017-Sep-24 02:55N 47°21' W 003°09'0 0.0
2017-Sep-24 02:28N 47°21' W 003°09'0 0.0
2017-Sep-24 01:58N 47°21' W 003°09'0 0.0
2017-Sep-24 01:28N 47°21' W 003°09'0 0.0
2017-Sep-24 00:55N 47°21' W 003°09'0 0.0
2017-Sep-24 00:28N 47°21' W 003°09'0 0.0
2017-Sep-23 23:55N 47°21' W 003°09'0 0.0
2017-Sep-23 23:28N 47°21' W 003°09'0 0.0
2017-Sep-23 22:55N 47°21' W 003°09'0 0.0
2017-Sep-23 22:22N 47°21' W 003°09'0 0.0
2017-Sep-23 21:58N 47°21' W 003°09'0 0.0
2017-Sep-23 21:28N 47°21' W 003°09'0 0.0
2017-Sep-23 20:52N 47°21' W 003°09'0 0.0
2017-Sep-23 20:28N 47°21' W 003°09'0 0.0
2017-Sep-23 19:55N 47°21' W 003°09'  
Track history (hours):
 
Tides and Currents Weather Stations Pressure Air Temp Water Temp Dewpoint Dewpoint Depression Visibility Wind Speed Wind Dir Waves Ship Positions

Laudanum

Last reported at 2017-Sep-24 13:44 UTC. Time now 2017-Nov-21 14:04 UTC.
Position N 47°35' W 003°02'.
Warning: this ship's position is 58 days out of date.

Type: Sailing vessel. MMSI: 227360690.

Date/timePositionNaut miles runAvg speedWind from/ knotsBaromVisibWave heightAir tempDewpointWater temp
2017-Sep-24 13:44N 47°35' W 003°02'0 0.0
2017-Sep-24 13:29N 47°35' W 003°02'0 0.0
2017-Sep-24 12:59N 47°35' W 003°02'1 2.3
2017-Sep-24 12:30N 47°34' W 003°01'3 6.1
2017-Sep-24 12:00N 47°31' W 003°01'2 4.8
2017-Sep-24 11:30N 47°29' W 003°02'2 4.7
2017-Sep-24 11:00N 47°27' W 003°03'2 4.5
2017-Sep-24 10:30N 47°25' W 003°05'3 5.6
2017-Sep-24 10:00N 47°23' W 003°08'3 4.8
2017-Sep-24 09:28N 47°21' W 003°09'0 0.0
2017-Sep-24 08:52N 47°21' W 003°09'0 0.0
2017-Sep-24 08:25N 47°21' W 003°09'0 0.0
2017-Sep-24 07:58N 47°21' W 003°09'0 0.0
2017-Sep-24 07:22N 47°21' W 003°09'0 0.0
2017-Sep-24 05:49N 47°21' W 003°09'0 0.0
2017-Sep-24 05:28N 47°21' W 003°09'0 0.0
2017-Sep-24 04:58N 47°21' W 003°09'0 0.0
2017-Sep-24 04:28N 47°21' W 003°09'0 0.0
2017-Sep-24 03:58N 47°21' W 003°09'0 0.0
2017-Sep-24 03:28N 47°21' W 003°09'0 0.0
2017-Sep-24 02:55N 47°21' W 003°09'0 0.0
2017-Sep-24 02:28N 47°21' W 003°09'0 0.0
2017-Sep-24 01:58N 47°21' W 003°09'0 0.0
2017-Sep-24 01:28N 47°21' W 003°09'0 0.0
2017-Sep-24 00:55N 47°21' W 003°09'0 0.0
2017-Sep-24 00:28N 47°21' W 003°09'0 0.0
2017-Sep-23 23:55N 47°21' W 003°09'0 0.0
2017-Sep-23 23:28N 47°21' W 003°09'0 0.0
2017-Sep-23 22:55N 47°21' W 003°09'0 0.0
2017-Sep-23 22:22N 47°21' W 003°09'0 0.0
2017-Sep-23 21:58N 47°21' W 003°09'0 0.0
2017-Sep-23 21:28N 47°21' W 003°09'0 0.0
2017-Sep-23 20:52N 47°21' W 003°09'0 0.0
2017-Sep-23 20:28N 47°21' W 003°09'0 0.0
2017-Sep-23 19:55N 47°21' W 003°09'  

Dump ship's entire track history